createdAt,value
2023-03-17T00:00:43.608Z,50.75
2023-03-17T00:06:00.191Z,51.28
2023-03-17T00:11:06.444Z,51.26
2023-03-17T00:16:19.261Z,51.70
2023-03-17T00:21:28.700Z,51.92
2023-03-17T00:26:34.210Z,51.82
2023-03-17T00:31:40.297Z,51.92
2023-03-17T00:36:48.437Z,52.19
2023-03-17T00:41:54.110Z,52.18
2023-03-17T00:46:59.575Z,52.28
2023-03-17T00:52:06.055Z,52.39
2023-03-17T00:57:12.775Z,52.39
2023-03-17T01:02:18.544Z,52.58
2023-03-17T01:07:24.378Z,52.55
2023-03-17T01:12:29.747Z,52.69
2023-03-17T01:17:35.020Z,52.90
2023-03-17T01:22:40.419Z,52.89
2023-03-17T01:27:46.687Z,53.17
2023-03-17T01:32:52.171Z,53.32
2023-03-17T01:37:58.039Z,53.30
2023-03-17T01:43:19.714Z,53.57
2023-03-17T01:48:26.085Z,53.43
2023-03-17T01:53:32.545Z,53.75
2023-03-17T01:58:37.998Z,53.97
2023-03-17T02:03:45.107Z,54.11
2023-03-17T02:08:52.113Z,54.20
2023-03-17T02:13:57.676Z,54.15
2023-03-17T02:19:03.641Z,54.38
2023-03-17T02:24:17.710Z,54.48
2023-03-17T02:29:23.705Z,54.59
2023-03-17T02:34:29.344Z,54.70
2023-03-17T02:39:35.151Z,54.79
2023-03-17T02:44:40.924Z,54.48
2023-03-17T02:49:47.037Z,54.78
2023-03-17T02:54:52.841Z,54.46
2023-03-17T02:59:58.206Z,54.75
2023-03-17T03:05:04.737Z,54.57
2023-03-17T03:10:12.108Z,54.75
2023-03-17T03:15:17.884Z,54.55
2023-03-17T03:20:23.245Z,54.38
2023-03-17T03:25:29.081Z,54.56
2023-03-17T03:30:35.098Z,54.66
2023-03-17T03:35:40.606Z,54.71
2023-03-17T03:40:46.793Z,54.60
2023-03-17T03:45:54.608Z,54.65
2023-03-17T03:51:01.456Z,54.60
2023-03-17T03:56:08.055Z,54.56
2023-03-17T04:01:13.342Z,54.68
2023-03-17T04:06:19.040Z,54.54
2023-03-17T04:11:24.359Z,54.51
2023-03-17T04:16:29.732Z,54.61
2023-03-17T04:21:35.146Z,54.46
2023-03-17T04:26:41.464Z,54.39
2023-03-17T04:31:46.819Z,54.51
2023-03-17T04:36:52.210Z,54.57
2023-03-17T04:41:57.703Z,54.37
2023-03-17T04:47:03.520Z,54.48
2023-03-17T04:52:09.057Z,54.36
2023-03-17T04:57:14.518Z,54.39
2023-03-17T05:02:20.339Z,54.21
2023-03-17T05:07:26.175Z,54.21
2023-03-17T05:12:31.714Z,54.04
2023-03-17T05:17:37.098Z,53.91
2023-03-17T05:22:42.699Z,53.87
2023-03-17T05:27:48.001Z,53.85
2023-03-17T05:32:54.035Z,53.84
2023-03-17T05:37:59.460Z,53.67
2023-03-17T05:43:05.939Z,53.54
2023-03-17T05:48:12.393Z,53.68
2023-03-17T05:53:17.837Z,53.53
2023-03-17T05:58:23.148Z,53.55
2023-03-17T06:03:28.499Z,53.51
2023-03-17T06:08:33.950Z,53.25
2023-03-17T06:13:39.298Z,53.29
2023-03-17T06:18:45.882Z,52.80
2023-03-17T06:23:51.288Z,52.77
2023-03-17T06:28:57.528Z,52.94
2023-03-17T06:34:03.279Z,52.74
2023-03-17T06:39:09.560Z,52.59
2023-03-17T06:44:15.251Z,52.18
2023-03-17T06:49:20.826Z,52.35
2023-03-17T06:54:26.384Z,51.89
2023-03-17T06:59:32.312Z,52.23
2023-03-17T07:04:38.367Z,51.81
2023-03-17T07:09:45.282Z,51.82
2023-03-17T07:14:50.900Z,51.21
2023-03-17T07:19:56.641Z,51.06
2023-03-17T07:25:02.104Z,51.21
2023-03-17T07:30:10.896Z,51.16
2023-03-17T07:35:16.686Z,50.21
2023-03-17T07:40:22.313Z,50.41
2023-03-17T07:45:27.971Z,49.41
2023-03-17T07:50:34.091Z,49.26
2023-03-17T07:55:39.466Z,48.95
2023-03-17T08:00:44.743Z,48.81
2023-03-17T08:05:57.534Z,48.69
2023-03-17T08:11:05.190Z,48.27
2023-03-17T08:16:11.108Z,48.01
2023-03-17T08:21:16.894Z,47.50
2023-03-17T08:26:22.512Z,46.94
2023-03-17T08:31:28.667Z,46.82
2023-03-17T08:36:34.417Z,45.51
2023-03-17T08:41:39.710Z,45.70
2023-03-17T08:46:45.611Z,45.17
2023-03-17T08:51:51.093Z,45.05
2023-03-17T08:56:57.655Z,45.37
2023-03-17T09:02:03.110Z,44.87
2023-03-17T09:07:10.335Z,45.01
2023-03-17T09:12:15.700Z,44.54
2023-03-17T09:17:21.774Z,44.80
2023-03-17T09:22:27.523Z,44.16
2023-03-17T09:27:32.820Z,43.99
2023-03-17T09:32:39.046Z,43.92
2023-03-17T09:37:44.411Z,43.29
2023-03-17T09:42:59.702Z,43.47
2023-03-17T09:48:23.452Z,42.26
2023-03-17T09:53:35.850Z,42.86
2023-03-17T09:58:44.305Z,42.99
2023-03-17T10:03:50.982Z,42.45
2023-03-17T10:09:02.406Z,42.31
2023-03-17T10:14:23.690Z,41.37
2023-03-17T10:19:34.820Z,41.40
2023-03-17T10:24:45.957Z,40.86
2023-03-17T10:29:51.833Z,39.92
2023-03-17T10:34:57.805Z,40.73
2023-03-17T10:40:10.419Z,41.03
2023-03-17T10:45:25.087Z,40.19
2023-03-17T10:50:32.850Z,40.11
2023-03-17T10:55:44.793Z,39.68
2023-03-17T11:00:57.220Z,39.40
2023-03-17T11:06:14.390Z,39.33
2023-03-17T11:11:27.864Z,39.87
2023-03-17T11:16:37.489Z,38.78
2023-03-17T11:21:54.683Z,38.87
2023-03-17T11:27:08.518Z,37.94
2023-03-17T11:32:32.122Z,37.75
2023-03-17T11:37:57.463Z,38.35
2023-03-17T11:43:18.089Z,39.01
2023-03-17T11:48:40.027Z,39.34
2023-03-17T11:54:01.043Z,38.46
2023-03-17T11:59:14.652Z,36.97
2023-03-17T12:04:25.779Z,37.07
2023-03-17T12:09:37.247Z,36.58
2023-03-17T12:14:48.844Z,37.02
2023-03-17T12:19:58.942Z,36.56
2023-03-17T12:25:16.493Z,37.19
2023-03-17T12:30:31.258Z,36.54
2023-03-17T12:35:41.125Z,36.92
2023-03-17T12:41:07.915Z,36.91
2023-03-17T12:46:35.299Z,36.76
2023-03-17T12:51:56.366Z,36.93
2023-03-17T12:57:21.392Z,37.23
2023-03-17T13:02:38.538Z,37.98
2023-03-17T13:07:51.792Z,37.63
2023-03-17T13:13:10.492Z,37.95
2023-03-17T13:18:45.007Z,37.34
2023-03-17T13:23:57.910Z,37.58
2023-03-17T13:29:22.600Z,36.69
2023-03-17T13:34:29.703Z,37.17
2023-03-17T13:40:04.682Z,37.61
2023-03-17T13:45:23.330Z,37.25
2023-03-17T13:50:33.575Z,36.88
2023-03-17T13:55:42.443Z,36.65
2023-03-17T14:00:50.719Z,36.77
2023-03-17T14:05:57.473Z,36.81
2023-03-17T14:11:07.059Z,37.19
2023-03-17T14:16:21.294Z,36.97
2023-03-17T14:21:32.843Z,37.08
2023-03-17T14:26:38.335Z,37.67
2023-03-17T14:31:49.796Z,37.59
2023-03-17T14:36:58.455Z,37.62
2023-03-17T14:42:05.674Z,36.77
2023-03-17T14:47:19.812Z,36.11
2023-03-17T14:52:28.671Z,36.22
2023-03-17T14:57:37.240Z,36.59
2023-03-17T15:02:44.300Z,37.23
2023-03-17T15:07:49.836Z,37.14
2023-03-17T15:13:04.368Z,36.75
2023-03-17T15:18:13.681Z,37.44
2023-03-17T15:23:22.304Z,37.79
2023-03-17T15:28:31.571Z,37.41
2023-03-17T15:33:39.314Z,37.75
2023-03-17T15:38:44.694Z,37.47
2023-03-17T15:43:49.961Z,37.18
2023-03-17T15:48:55.665Z,37.85
2023-03-17T15:54:01.044Z,38.28
2023-03-17T15:59:06.397Z,38.43
2023-03-17T16:04:11.797Z,38.24
2023-03-17T16:09:18.213Z,38.02
2023-03-17T16:14:25.213Z,38.35
2023-03-17T16:19:30.675Z,38.03
2023-03-17T16:24:35.989Z,38.17
2023-03-17T16:29:41.394Z,38.28
2023-03-17T16:34:46.913Z,38.33
2023-03-17T16:39:52.349Z,38.19
2023-03-17T16:44:57.809Z,38.77
2023-03-17T16:50:03.367Z,38.30
2023-03-17T16:55:09.859Z,38.80
2023-03-17T17:00:20.149Z,38.75
2023-03-17T17:05:28.205Z,38.83
2023-03-17T17:10:34.793Z,38.96
2023-03-17T17:15:41.715Z,38.78
2023-03-17T17:20:47.743Z,38.92
2023-03-17T17:25:54.001Z,38.82
2023-03-17T17:30:59.799Z,39.08
2023-03-17T17:36:11.413Z,39.01
2023-03-17T17:41:17.118Z,39.34
2023-03-17T17:46:23.515Z,39.36
2023-03-17T17:51:29.283Z,39.18
2023-03-17T17:56:36.744Z,39.46
2023-03-17T18:01:42.662Z,39.35
2023-03-17T18:06:47.997Z,39.48
2023-03-17T18:11:53.473Z,39.84
2023-03-17T18:16:58.917Z,39.96
2023-03-17T18:22:04.684Z,39.99
2023-03-17T18:27:10.328Z,39.88
2023-03-17T18:32:15.925Z,39.67
2023-03-17T18:37:21.222Z,39.74
2023-03-17T18:42:27.305Z,40.01
2023-03-17T18:47:32.614Z,40.12
2023-03-17T18:52:41.114Z,40.17
2023-03-17T18:57:46.675Z,40.44
2023-03-17T19:02:52.150Z,40.46
2023-03-17T19:07:57.715Z,40.44
2023-03-17T19:13:04.570Z,40.56
2023-03-17T19:18:10.074Z,40.65
2023-03-17T19:23:15.511Z,40.78
2023-03-17T19:28:20.857Z,41.06
2023-03-17T19:33:26.523Z,41.42
2023-03-17T19:38:32.170Z,41.39
2023-03-17T19:43:41.225Z,41.51
2023-03-17T19:48:48.131Z,41.80
2023-03-17T19:53:53.864Z,42.01
2023-03-17T19:58:59.459Z,42.20
2023-03-17T20:04:07.073Z,42.55
2023-03-17T20:09:12.757Z,42.66
2023-03-17T20:14:18.160Z,42.77
2023-03-17T20:19:23.949Z,42.83
2023-03-17T20:24:30.234Z,43.17
2023-03-17T20:29:35.584Z,43.47
2023-03-17T20:34:43.379Z,43.67
2023-03-17T20:39:48.815Z,43.98
2023-03-17T20:44:54.100Z,44.18
2023-03-17T20:50:00.585Z,44.12
2023-03-17T20:55:09.283Z,44.30
2023-03-17T21:00:18.284Z,44.40
2023-03-17T21:05:26.063Z,44.63
2023-03-17T21:10:31.813Z,44.66
2023-03-17T21:15:37.605Z,45.05
2023-03-17T21:20:43.137Z,45.41
2023-03-17T21:25:52.777Z,45.39
2023-03-17T21:30:58.418Z,45.44
2023-03-17T21:36:04.483Z,45.56
2023-03-17T21:41:29.274Z,46.00
2023-03-17T21:46:34.565Z,46.33
2023-03-17T21:51:40.040Z,46.35
2023-03-17T21:56:46.284Z,46.61
2023-03-17T22:01:53.158Z,46.67
2023-03-17T22:06:59.050Z,46.90
2023-03-17T22:12:05.347Z,47.21
2023-03-17T22:17:10.768Z,47.38
2023-03-17T22:22:16.141Z,47.57
2023-03-17T22:27:21.604Z,47.59
2023-03-17T22:32:26.890Z,47.71
2023-03-17T22:37:32.323Z,47.43
2023-03-17T22:42:38.010Z,47.84
2023-03-17T22:47:43.682Z,47.56
2023-03-17T22:52:49.391Z,47.90
2023-03-17T22:57:54.645Z,47.72
2023-03-17T23:02:59.908Z,47.61
2023-03-17T23:08:08.454Z,48.11
2023-03-17T23:13:13.924Z,48.02
2023-03-17T23:18:19.338Z,47.93
2023-03-17T23:23:24.638Z,47.99
2023-03-17T23:28:29.921Z,48.15
2023-03-17T23:33:35.194Z,48.15
2023-03-17T23:38:41.529Z,48.34
2023-03-17T23:43:47.028Z,48.17
2023-03-17T23:48:53.048Z,48.24
2023-03-17T23:54:18.656Z,48.58
2023-03-17T23:59:34.517Z,48.17
